Aérodrome :
LOGIN :

S'inscrire | Disclaimer

   EN    FR    IT 

 










Légende :    VFR   VFR Marginal   IFR   IFR Intensif   IFR Très Intensif
Visi : 
Plafond : 
>= 8 km
>= 3000ft
5 à 8 km
1000 à 3000 ft
1500m à 5 km
500 à 1000 ft
800 à 1500m
200 à 500 ft
< 800m
< 200 ft
Symboles :   Orages  Brouillard  Fortes neiges  Fortes précipitations  Vent > 20 kt
SIGMETs :   Divers  Orages  Givrage  Turbulence  Onde Orograph.  Cendres Volcan.







- Altitude de l'aérodrome : 598 ft
- Code IATA : BQH
- Voir les cartes d'approche


EGKB - Biggin Hill

DERNIER METAR :
  • 201520Z 25004KT 210V320 CAVOK 16/09 Q1030

METARs EXPIRÉS :
  • 201450Z 22005KT 190V260 CAVOK 16/09 Q1031
  • 201420Z 22006KT 190V260 CAVOK 16/09 Q1031
  • 201350Z 22006KT 190V260 CAVOK 16/09 Q1031
  • 201320Z 23006KT 180V260 CAVOK 16/09 Q1031
  • 201250Z 19006KT 160V260 CAVOK 15/09 Q1031
  • 201220Z 18007KT 150V220 CAVOK 15/09 Q1031

TAF TAF EGKB
Valide du 20 à 15h jusqu'au 20 à 21h UTC


201358Z 2015/2021 24003KT CAVOK
PROB30 2018/2021 8000
Pas de NOTAMs connus pour ce terrain.



MET'MAP, la Météo Aéronautique d'un coup d'oeil ! - Copyright ORBIFLY Décembre 2007 - Disclaimer

ORBIFLY MET'MAP TEAM :

Programmation & Développement : Alexandra Zaïnal
Conception & Développement : Baudouin d'Aumeries
Co-Programmation & Développement : Marc-Olivier Méhu
Soutien technique & logistique : Manuel Goepfert

Contact : metmap@orbifly.com




SOURCES & CREDITS :

   NOAA